createdAt,value
2022-12-25T00:00:21.070Z,2.10
2022-12-25T00:02:23.105Z,1.92
2022-12-25T00:04:24.914Z,1.75
2022-12-25T00:06:26.841Z,1.10
2022-12-25T00:08:28.616Z,1.90
2022-12-25T00:10:30.310Z,2.20
2022-12-25T00:12:32.038Z,1.60
2022-12-25T00:14:33.911Z,1.40
2022-12-25T00:16:35.745Z,1.55
2022-12-25T00:18:37.451Z,1.48
2022-12-25T00:20:39.159Z,1.48
2022-12-25T00:22:40.824Z,1.75
2022-12-25T00:24:42.483Z,1.83
2022-12-25T00:26:44.275Z,1.73
2022-12-25T00:28:45.994Z,1.80
2022-12-25T00:30:47.775Z,1.70
2022-12-25T00:32:49.531Z,1.20
2022-12-25T00:34:51.258Z,1.98
2022-12-25T00:36:53.113Z,2.03
2022-12-25T00:38:54.875Z,1.77
2022-12-25T00:40:56.759Z,2.78
2022-12-25T00:42:58.663Z,1.50
2022-12-25T00:45:01.592Z,1.65
2022-12-25T00:47:03.568Z,1.65
2022-12-25T00:49:05.396Z,1.85
2022-12-25T00:51:10.647Z,1.45
2022-12-25T00:53:12.383Z,1.83
2022-12-25T00:55:14.038Z,1.20
2022-12-25T00:57:15.850Z,1.95
2022-12-25T00:59:17.636Z,1.55
2022-12-25T01:01:19.533Z,1.60
2022-12-25T01:03:21.369Z,1.50
2022-12-25T01:05:23.074Z,1.40
2022-12-25T01:07:26.722Z,1.58
2022-12-25T01:09:47.102Z,1.73
2022-12-25T01:11:48.862Z,1.17
2022-12-25T01:13:51.107Z,1.85
2022-12-25T01:15:52.872Z,2.10
2022-12-25T01:17:54.662Z,2.60
2022-12-25T01:19:56.303Z,2.05
2022-12-25T01:21:57.958Z,1.95
2022-12-25T01:23:59.675Z,1.83
2022-12-25T01:26:08.215Z,3.17
2022-12-25T01:28:09.957Z,2.35
2022-12-25T01:30:11.940Z,2.80
2022-12-25T01:32:13.781Z,1.92
2022-12-25T01:34:15.507Z,2.60
2022-12-25T01:36:22.819Z,1.95
2022-12-25T01:38:24.595Z,1.90
2022-12-25T01:40:26.289Z,2.22
2022-12-25T01:42:28.447Z,1.80
2022-12-25T01:44:36.490Z,1.67
2022-12-25T01:46:38.623Z,1.83
2022-12-25T01:48:40.289Z,1.23
2022-12-25T01:50:46.772Z,1.92
2022-12-25T01:52:49.284Z,1.50
2022-12-25T01:54:55.366Z,1.33
2022-12-25T01:57:00.033Z,2.17
2022-12-25T01:59:01.931Z,1.30
2022-12-25T02:01:03.677Z,1.67
2022-12-25T02:03:05.958Z,1.73
2022-12-25T02:05:16.328Z,1.52
2022-12-25T02:07:20.435Z,1.75
2022-12-25T02:09:22.112Z,1.30
2022-12-25T02:11:42.348Z,1.48
2022-12-25T02:13:44.105Z,1.58
2022-12-25T02:16:13.565Z,1.48
2022-12-25T02:18:27.390Z,1.30
2022-12-25T02:20:47.636Z,1.25
2022-12-25T02:23:28.768Z,1.98
2022-12-25T02:25:37.071Z,2.88
2022-12-25T02:28:14.256Z,1.73
2022-12-25T02:30:15.999Z,2.08
2022-12-25T02:32:20.509Z,1.67
2022-12-25T02:34:34.566Z,2.03
2022-12-25T02:37:05.602Z,1.88
2022-12-25T02:39:33.270Z,1.98
2022-12-25T02:41:37.592Z,2.00
2022-12-25T02:44:00.372Z,2.05
2022-12-25T02:46:27.331Z,1.98
2022-12-25T02:48:50.874Z,2.03
2022-12-25T02:51:11.569Z,1.48
2022-12-25T02:53:31.721Z,1.85
2022-12-25T02:55:56.548Z,2.47
2022-12-25T02:58:19.960Z,1.90
2022-12-25T03:00:40.260Z,2.42
2022-12-25T03:03:01.415Z,2.83
2022-12-25T03:05:25.643Z,1.42
2022-12-25T03:07:28.965Z,1.75
2022-12-25T03:09:54.710Z,2.53
2022-12-25T03:12:22.360Z,1.67
2022-12-25T03:14:42.941Z,2.25
2022-12-25T03:16:51.222Z,2.22
2022-12-25T03:18:55.035Z,2.33
2022-12-25T03:21:15.164Z,2.38
2022-12-25T03:23:38.968Z,1.40
2022-12-25T03:25:59.312Z,1.50
2022-12-25T03:28:01.678Z,1.92
2022-12-25T03:30:22.544Z,2.28
2022-12-25T03:32:40.246Z,1.38
2022-12-25T03:35:03.744Z,1.85
2022-12-25T03:37:30.498Z,1.60
2022-12-25T03:39:49.588Z,2.05
2022-12-25T03:42:12.577Z,2.22
2022-12-25T03:44:29.325Z,1.67
2022-12-25T03:46:53.869Z,1.60
2022-12-25T03:49:22.067Z,1.90
2022-12-25T03:51:48.804Z,2.30
2022-12-25T03:54:13.940Z,1.73
2022-12-25T03:56:37.289Z,1.63
2022-12-25T03:58:57.484Z,1.45
2022-12-25T04:01:17.811Z,2.15
2022-12-25T04:03:38.238Z,1.70
2022-12-25T04:05:58.562Z,1.40
2022-12-25T04:08:18.822Z,1.40
2022-12-25T04:10:39.255Z,3.33
2022-12-25T04:13:00.094Z,2.35
2022-12-25T04:15:20.790Z,3.92
2022-12-25T04:17:41.346Z,3.67
2022-12-25T04:20:01.777Z,3.28
2022-12-25T04:22:22.030Z,2.55
2022-12-25T04:24:42.365Z,2.28
2022-12-25T04:27:02.693Z,1.70
2022-12-25T04:29:22.980Z,2.17
2022-12-25T04:31:43.163Z,1.75
2022-12-25T04:34:03.738Z,2.10
2022-12-25T04:36:12.557Z,1.83
2022-12-25T04:38:14.319Z,1.77
2022-12-25T04:40:16.242Z,2.08
2022-12-25T04:42:18.020Z,2.35
2022-12-25T04:44:19.763Z,2.45
2022-12-25T04:46:21.465Z,2.17
2022-12-25T04:48:23.377Z,2.67
2022-12-25T04:50:25.147Z,2.95
2022-12-25T04:52:26.816Z,3.58
2022-12-25T04:54:28.607Z,3.40
2022-12-25T04:56:30.326Z,3.10
2022-12-25T04:58:32.285Z,3.17
2022-12-25T05:00:34.060Z,3.10
2022-12-25T05:02:36.060Z,3.05
2022-12-25T05:04:37.928Z,3.92
2022-12-25T05:06:40.370Z,2.03
2022-12-25T05:08:42.066Z,2.50
2022-12-25T05:10:43.728Z,2.00
2022-12-25T05:12:45.398Z,2.13
2022-12-25T05:14:47.176Z,2.55
2022-12-25T05:16:48.817Z,2.60
2022-12-25T05:18:51.546Z,1.90
2022-12-25T05:20:54.576Z,2.88
2022-12-25T05:22:56.297Z,2.72
2022-12-25T05:24:58.016Z,2.63
2022-12-25T05:26:59.745Z,2.33
2022-12-25T05:29:01.478Z,2.42
2022-12-25T05:31:03.469Z,2.30
2022-12-25T05:33:05.285Z,2.05
2022-12-25T05:35:08.947Z,2.10
2022-12-25T05:37:10.650Z,2.45
2022-12-25T05:39:12.411Z,2.33
2022-12-25T05:41:14.151Z,2.33
2022-12-25T05:43:16.112Z,2.65
2022-12-25T05:45:20.698Z,2.20
2022-12-25T05:47:24.224Z,2.25
2022-12-25T05:49:25.950Z,2.33
2022-12-25T05:51:27.661Z,2.00
2022-12-25T05:53:29.362Z,2.25
2022-12-25T05:55:31.069Z,2.25
2022-12-25T05:57:32.999Z,1.80
2022-12-25T05:59:34.749Z,1.77
2022-12-25T06:01:36.612Z,1.70
2022-12-25T06:03:38.486Z,1.45
2022-12-25T06:05:40.202Z,1.80
2022-12-25T06:07:41.895Z,1.55
2022-12-25T06:09:43.732Z,2.70
2022-12-25T06:11:45.513Z,1.85
2022-12-25T06:13:50.939Z,2.75
2022-12-25T06:15:52.833Z,2.95
2022-12-25T06:17:54.563Z,2.50
2022-12-25T06:19:56.358Z,2.20
2022-12-25T06:21:58.056Z,3.40
2022-12-25T06:24:00.752Z,2.85
2022-12-25T06:26:07.584Z,3.13
2022-12-25T06:28:09.226Z,2.97
2022-12-25T06:30:14.298Z,5.80
2022-12-25T06:32:15.953Z,5.45
2022-12-25T06:34:17.689Z,3.60
2022-12-25T06:36:21.950Z,2.42
2022-12-25T06:38:23.670Z,2.95
2022-12-25T06:40:25.648Z,3.58
2022-12-25T06:42:27.345Z,2.13
2022-12-25T06:44:29.038Z,2.08
2022-12-25T06:46:31.136Z,2.30
2022-12-25T06:48:33.846Z,2.30
2022-12-25T06:50:35.579Z,1.58
2022-12-25T06:52:37.244Z,2.50
2022-12-25T06:54:38.922Z,1.35
2022-12-25T06:56:40.584Z,1.75
2022-12-25T06:58:51.428Z,1.55
2022-12-25T07:00:53.153Z,1.50
2022-12-25T07:02:54.946Z,1.55
2022-12-25T07:05:05.655Z,1.90
2022-12-25T07:07:09.164Z,1.73
2022-12-25T07:09:11.332Z,7.85
2022-12-25T07:11:13.252Z,4.03
2022-12-25T07:13:14.884Z,7.07
2022-12-25T07:15:16.747Z,5.68
2022-12-25T07:17:19.852Z,3.22
2022-12-25T07:19:21.607Z,3.80
2022-12-25T07:21:23.349Z,2.67
2022-12-25T07:23:26.474Z,2.55
2022-12-25T07:25:37.001Z,3.08
2022-12-25T07:27:39.082Z,2.30
2022-12-25T07:29:40.775Z,2.45
2022-12-25T07:31:42.723Z,2.15
2022-12-25T07:33:45.035Z,1.90
2022-12-25T07:35:47.228Z,1.67
2022-12-25T07:37:48.906Z,2.05
2022-12-25T07:39:50.610Z,1.88
2022-12-25T07:41:52.371Z,2.10
2022-12-25T07:43:54.339Z,2.20
2022-12-25T07:46:00.576Z,1.58
2022-12-25T07:48:05.424Z,2.35
2022-12-25T07:50:09.029Z,1.50
2022-12-25T07:52:10.740Z,1.92
2022-12-25T07:54:12.450Z,1.60
2022-12-25T07:56:16.307Z,1.60
2022-12-25T07:58:23.171Z,1.88
2022-12-25T08:00:29.805Z,2.30
2022-12-25T08:02:31.688Z,1.58
2022-12-25T08:04:33.467Z,1.73
2022-12-25T08:06:35.592Z,2.45
2022-12-25T08:08:38.459Z,2.20
2022-12-25T08:10:45.459Z,2.28
2022-12-25T08:12:47.183Z,2.60
2022-12-25T08:14:48.995Z,1.73
2022-12-25T08:16:50.757Z,2.08
2022-12-25T08:18:53.327Z,2.08
2022-12-25T08:20:55.355Z,1.73
2022-12-25T08:22:57.053Z,1.52
2022-12-25T08:24:58.790Z,2.33
2022-12-25T08:27:00.466Z,2.03
2022-12-25T08:29:02.301Z,1.90
2022-12-25T08:31:13.612Z,1.42
2022-12-25T08:33:15.453Z,1.40
2022-12-25T08:35:17.337Z,1.40
2022-12-25T08:37:19.147Z,1.58
2022-12-25T08:39:20.821Z,2.00
2022-12-25T08:41:23.223Z,1.58
2022-12-25T08:43:24.994Z,1.83
2022-12-25T08:45:32.770Z,1.40
2022-12-25T08:47:36.591Z,1.73
2022-12-25T08:49:38.555Z,1.73
2022-12-25T08:51:40.543Z,1.88
2022-12-25T08:53:43.607Z,3.50
2022-12-25T08:55:45.393Z,2.72
2022-12-25T08:57:47.042Z,9.10
2022-12-25T08:59:48.738Z,4.85
2022-12-25T09:01:50.486Z,4.03
2022-12-25T09:03:52.285Z,3.47
2022-12-25T09:05:54.923Z,2.85
2022-12-25T09:08:08.299Z,2.05
2022-12-25T09:10:10.730Z,2.75
2022-12-25T09:12:12.461Z,2.63
2022-12-25T09:14:14.362Z,2.97
2022-12-25T09:16:18.208Z,3.05
2022-12-25T09:18:19.924Z,4.03
2022-12-25T09:20:21.798Z,3.22
2022-12-25T09:22:23.561Z,3.58
2022-12-25T09:24:25.299Z,3.75
2022-12-25T09:26:27.357Z,2.50
2022-12-25T09:28:29.323Z,2.63
2022-12-25T09:30:31.072Z,2.22
2022-12-25T09:32:32.864Z,2.28
2022-12-25T09:34:34.978Z,2.45
2022-12-25T09:36:37.271Z,1.73
2022-12-25T09:38:39.037Z,1.98
2022-12-25T09:40:41.354Z,1.70
2022-12-25T09:42:44.148Z,2.10
2022-12-25T09:45:16.150Z,3.03
2022-12-25T09:47:21.852Z,2.13
2022-12-25T09:49:47.631Z,2.80
2022-12-25T09:51:53.721Z,1.45
2022-12-25T09:54:02.141Z,2.00
2022-12-25T09:56:26.823Z,1.27
2022-12-25T09:58:29.800Z,1.20
2022-12-25T10:00:54.254Z,1.25
2022-12-25T10:03:25.559Z,1.10
2022-12-25T10:05:44.785Z,1.00
2022-12-25T10:08:04.970Z,1.02
2022-12-25T10:10:21.270Z,1.33
2022-12-25T10:12:32.533Z,1.15
2022-12-25T10:15:06.059Z,1.10
2022-12-25T10:17:16.355Z,1.27
2022-12-25T10:19:30.271Z,0.98
2022-12-25T10:21:32.169Z,1.25
2022-12-25T10:24:23.422Z,0.80
2022-12-25T10:26:25.967Z,1.15
2022-12-25T10:28:40.236Z,1.27
2022-12-25T10:30:45.221Z,1.02
2022-12-25T10:32:47.387Z,1.25
2022-12-25T10:34:49.798Z,1.25
2022-12-25T10:36:51.665Z,1.50
2022-12-25T10:38:54.130Z,1.40
2022-12-25T10:41:22.774Z,1.85
2022-12-25T10:43:30.750Z,1.45
2022-12-25T10:45:43.220Z,1.08
2022-12-25T10:47:45.088Z,1.30
2022-12-25T10:49:46.799Z,1.17
2022-12-25T10:51:48.541Z,1.77
2022-12-25T10:53:50.245Z,1.67
2022-12-25T10:56:18.926Z,1.45
2022-12-25T10:58:20.916Z,1.20
2022-12-25T11:00:25.600Z,1.00
2022-12-25T11:02:35.229Z,1.48
2022-12-25T11:04:37.204Z,1.42
2022-12-25T11:06:38.911Z,1.27
2022-12-25T11:08:40.599Z,1.77
2022-12-25T11:10:44.023Z,1.60
2022-12-25T11:12:46.566Z,1.15
2022-12-25T11:15:01.085Z,1.50
2022-12-25T11:17:09.849Z,1.10
2022-12-25T11:19:32.439Z,1.20
2022-12-25T11:21:36.980Z,1.10
2022-12-25T11:23:44.690Z,1.20
2022-12-25T11:26:07.640Z,0.82
2022-12-25T11:28:11.189Z,1.02
2022-12-25T11:30:16.191Z,0.90
2022-12-25T11:32:21.281Z,1.17
2022-12-25T11:34:32.091Z,1.20
2022-12-25T11:36:43.776Z,1.13
2022-12-25T11:38:45.635Z,1.30
2022-12-25T11:40:49.695Z,1.55
2022-12-25T11:43:24.097Z,1.10
2022-12-25T11:45:33.607Z,0.90
2022-12-25T11:47:57.884Z,1.27
2022-12-25T11:50:05.237Z,1.00
2022-12-25T11:52:11.075Z,1.10
2022-12-25T11:54:28.242Z,0.98
2022-12-25T11:56:31.069Z,1.20
2022-12-25T11:58:52.577Z,0.98
2022-12-25T12:00:56.594Z,0.90
2022-12-25T12:03:02.616Z,1.20
2022-12-25T12:05:25.615Z,1.10
2022-12-25T12:07:29.693Z,1.08
2022-12-25T12:09:51.445Z,1.20
2022-12-25T12:12:06.661Z,1.02
2022-12-25T12:14:49.886Z,0.88
2022-12-25T12:16:51.614Z,1.10
2022-12-25T12:18:53.355Z,1.20
2022-12-25T12:21:11.292Z,0.98
2022-12-25T12:23:17.006Z,1.25
2022-12-25T12:25:22.092Z,0.82
2022-12-25T12:27:34.772Z,0.80
2022-12-25T12:29:43.503Z,1.10
2022-12-25T12:31:47.631Z,0.80
2022-12-25T12:33:49.370Z,1.13
2022-12-25T12:35:51.655Z,1.05
2022-12-25T12:38:01.030Z,0.95
2022-12-25T12:40:05.277Z,1.08
2022-12-25T12:42:19.028Z,0.90
2022-12-25T12:44:22.239Z,1.00
2022-12-25T12:46:30.890Z,0.88
2022-12-25T12:48:40.258Z,0.80
2022-12-25T12:50:42.721Z,0.82
2022-12-25T12:52:44.392Z,1.10
2022-12-25T12:55:07.579Z,0.70
2022-12-25T12:57:25.388Z,0.95
2022-12-25T12:59:46.952Z,1.15
2022-12-25T13:01:56.187Z,0.95
2022-12-25T13:04:16.126Z,0.57
2022-12-25T13:06:21.147Z,0.73
2022-12-25T13:08:44.708Z,1.10
2022-12-25T13:10:51.303Z,0.80
2022-12-25T13:13:02.135Z,0.80
2022-12-25T13:15:04.350Z,0.85
2022-12-25T13:17:07.644Z,1.00
2022-12-25T13:19:15.119Z,1.10
2022-12-25T13:21:19.878Z,0.90
2022-12-25T13:23:26.515Z,0.95
2022-12-25T13:25:28.267Z,1.27
2022-12-25T13:27:32.289Z,1.10
2022-12-25T13:29:36.908Z,0.90
2022-12-25T13:31:44.037Z,1.10
2022-12-25T13:34:05.593Z,1.35
2022-12-25T13:36:11.254Z,1.48
2022-12-25T13:38:16.512Z,1.17
2022-12-25T13:40:25.283Z,1.08
2022-12-25T13:42:32.034Z,1.20
2022-12-25T13:44:44.675Z,1.25
2022-12-25T13:46:46.765Z,1.45
2022-12-25T13:48:57.787Z,1.10
2022-12-25T13:51:01.817Z,1.45
2022-12-25T13:53:16.254Z,1.75
2022-12-25T13:55:21.968Z,1.35
2022-12-25T13:57:27.715Z,1.88
2022-12-25T13:59:30.092Z,1.50
2022-12-25T14:01:31.803Z,1.23
2022-12-25T14:03:39.704Z,2.03
2022-12-25T14:05:43.364Z,1.25
2022-12-25T14:07:51.349Z,1.50
2022-12-25T14:09:58.809Z,1.42
2022-12-25T14:12:00.485Z,1.35
2022-12-25T14:14:06.865Z,1.52
2022-12-25T14:16:09.503Z,1.48
2022-12-25T14:18:18.520Z,1.33
2022-12-25T14:20:27.707Z,1.10
2022-12-25T14:22:31.743Z,1.38
2022-12-25T14:24:34.439Z,1.40
2022-12-25T14:26:36.504Z,1.20
2022-12-25T14:28:38.777Z,1.33
2022-12-25T14:30:42.271Z,1.33
2022-12-25T14:32:46.580Z,1.48
2022-12-25T14:34:51.803Z,1.25
2022-12-25T14:36:53.663Z,1.13
2022-12-25T14:38:58.146Z,1.38
2022-12-25T14:41:05.025Z,1.20
2022-12-25T14:43:22.491Z,1.27
2022-12-25T14:45:31.456Z,2.03
2022-12-25T14:47:49.500Z,1.50
2022-12-25T14:49:53.510Z,1.50
2022-12-25T14:51:55.299Z,1.48
2022-12-25T14:53:59.441Z,1.52
2022-12-25T14:56:01.480Z,1.75
2022-12-25T14:58:06.197Z,1.17
2022-12-25T15:00:19.215Z,1.98
2022-12-25T15:02:20.989Z,1.60
2022-12-25T15:04:23.941Z,1.25
2022-12-25T15:06:25.757Z,1.65
2022-12-25T15:08:28.203Z,1.63
2022-12-25T15:12:51.952Z,1.48
2022-12-25T15:14:53.665Z,1.95
2022-12-25T15:17:00.886Z,1.58
2022-12-25T15:19:02.698Z,1.90
2022-12-25T15:21:04.478Z,1.38
2022-12-25T15:23:21.907Z,1.20
2022-12-25T15:25:23.674Z,1.20
2022-12-25T15:27:25.382Z,1.50
2022-12-25T15:29:52.106Z,1.48
2022-12-25T15:31:48.810Z,0.98
2022-12-25T15:33:51.010Z,0.93
2022-12-25T15:35:52.756Z,1.38
2022-12-25T15:37:54.446Z,2.25
2022-12-25T15:39:57.465Z,1.83
2022-12-25T15:42:11.823Z,1.33
2022-12-25T15:44:14.097Z,1.70
2022-12-25T15:46:15.779Z,1.33
2022-12-25T15:48:17.506Z,1.73
2022-12-25T15:50:20.055Z,1.45
2022-12-25T15:52:21.675Z,1.40
2022-12-25T15:54:23.313Z,1.25
2022-12-25T15:56:25.012Z,1.55
2022-12-25T15:58:26.684Z,1.70
2022-12-25T16:00:28.434Z,1.80
2022-12-25T16:02:30.254Z,2.30
2022-12-25T16:04:32.118Z,6.25
2022-12-25T16:06:33.844Z,6.82
2022-12-25T16:08:35.560Z,2.50
2022-12-25T16:10:39.121Z,2.40
2022-12-25T16:12:42.301Z,1.90
2022-12-25T16:14:44.030Z,1.77
2022-12-25T16:16:45.801Z,1.63
2022-12-25T16:18:47.967Z,1.88
2022-12-25T16:20:51.509Z,1.38
2022-12-25T16:22:53.176Z,1.63
2022-12-25T16:24:55.268Z,2.10
2022-12-25T16:26:57.047Z,1.35
2022-12-25T16:29:03.683Z,1.35
2022-12-25T16:31:12.195Z,1.77
2022-12-25T16:33:14.527Z,1.55
2022-12-25T16:35:17.176Z,1.52
2022-12-25T16:37:19.177Z,1.48
2022-12-25T16:39:20.936Z,1.60
2022-12-25T16:41:22.665Z,1.58
2022-12-25T16:43:24.564Z,1.60
2022-12-25T16:45:26.223Z,1.50
2022-12-25T16:47:27.876Z,1.35
2022-12-25T16:49:29.587Z,1.48
2022-12-25T16:51:31.508Z,1.60
2022-12-25T16:53:33.160Z,1.67
2022-12-25T16:55:36.863Z,1.58
2022-12-25T16:57:38.570Z,1.85
2022-12-25T16:59:40.311Z,1.10
2022-12-25T17:01:43.462Z,1.42
2022-12-25T17:03:45.952Z,1.48
2022-12-25T17:05:47.650Z,1.60
2022-12-25T17:07:49.529Z,1.50
2022-12-25T17:09:51.303Z,1.95
2022-12-25T17:11:52.984Z,1.40
2022-12-25T17:13:55.471Z,1.90
2022-12-25T17:15:57.294Z,1.40
2022-12-25T17:17:59.072Z,1.52
2022-12-25T17:20:00.795Z,1.48
2022-12-25T17:22:02.520Z,1.38
2022-12-25T17:24:05.035Z,1.83
2022-12-25T17:26:07.106Z,1.45
2022-12-25T17:28:09.971Z,1.60
2022-12-25T17:30:11.930Z,1.33
2022-12-25T17:32:13.670Z,1.38
2022-12-25T17:34:15.384Z,1.42
2022-12-25T17:36:19.258Z,1.55
2022-12-25T17:38:20.917Z,2.08
2022-12-25T17:40:24.044Z,2.05
2022-12-25T17:42:25.748Z,1.77
2022-12-25T17:44:27.513Z,1.38
2022-12-25T17:46:30.576Z,1.50
2022-12-25T17:48:33.032Z,1.88
2022-12-25T17:50:41.030Z,1.92
2022-12-25T17:52:43.159Z,1.75
2022-12-25T17:54:44.881Z,1.73
2022-12-25T17:56:46.566Z,2.22
2022-12-25T17:58:56.377Z,1.92
2022-12-25T18:00:58.978Z,1.88
2022-12-25T18:03:05.799Z,1.95
2022-12-25T18:05:12.467Z,2.30
2022-12-25T18:07:14.343Z,1.85
2022-12-25T18:09:16.067Z,1.60
2022-12-25T18:11:20.242Z,2.00
2022-12-25T18:13:21.889Z,2.05
2022-12-25T18:15:23.607Z,2.25
2022-12-25T18:17:25.573Z,2.20
2022-12-25T18:19:27.318Z,2.25
2022-12-25T18:21:29.705Z,1.88
2022-12-25T18:23:31.333Z,1.73
2022-12-25T18:25:33.917Z,1.92
2022-12-25T18:27:35.622Z,1.83
2022-12-25T18:29:37.278Z,2.10
2022-12-25T18:31:38.996Z,2.08
2022-12-25T18:33:41.298Z,2.00
2022-12-25T18:35:44.240Z,2.05
2022-12-25T18:37:48.175Z,2.58
2022-12-25T18:39:49.841Z,2.47
2022-12-25T18:42:10.161Z,2.40
2022-12-25T18:44:11.840Z,2.10
2022-12-25T18:46:15.515Z,2.50
2022-12-25T18:48:17.300Z,2.20
2022-12-25T18:50:20.233Z,2.50
2022-12-25T18:52:50.129Z,2.28
2022-12-25T18:54:43.655Z,2.05
2022-12-25T18:56:47.436Z,2.45
2022-12-25T18:58:52.344Z,2.75
2022-12-25T19:00:54.157Z,3.35
2022-12-25T19:02:58.370Z,2.97
2022-12-25T19:05:00.199Z,3.15
2022-12-25T19:07:01.897Z,2.60
2022-12-25T19:09:09.350Z,2.40
2022-12-25T19:11:11.169Z,1.95
2022-12-25T19:13:12.929Z,2.45
2022-12-25T19:15:14.821Z,2.60
2022-12-25T19:17:17.702Z,3.00
2022-12-25T19:19:19.432Z,2.47
2022-12-25T19:21:21.161Z,2.97
2022-12-25T19:23:22.874Z,2.90
2022-12-25T19:25:24.653Z,2.70
2022-12-25T19:27:26.382Z,2.05
2022-12-25T19:29:28.175Z,2.42
2022-12-25T19:31:29.887Z,2.70
2022-12-25T19:33:32.458Z,2.70
2022-12-25T19:35:34.202Z,3.03
2022-12-25T19:37:35.906Z,3.25
2022-12-25T19:39:37.930Z,2.20
2022-12-25T19:41:40.025Z,2.85
2022-12-25T19:43:43.025Z,3.08
2022-12-25T19:45:44.735Z,2.65
2022-12-25T19:47:46.379Z,2.60
2022-12-25T19:49:52.699Z,3.00
2022-12-25T19:51:54.892Z,2.33
2022-12-25T19:53:56.659Z,2.90
2022-12-25T19:56:01.733Z,3.15
2022-12-25T19:58:03.461Z,2.28
2022-12-25T20:00:05.760Z,1.90
2022-12-25T20:02:07.535Z,3.30
2022-12-25T20:04:10.000Z,2.33
2022-12-25T20:06:21.955Z,2.03
2022-12-25T20:08:23.971Z,2.28
2022-12-25T20:10:25.711Z,2.75
2022-12-25T20:12:30.839Z,3.10
2022-12-25T20:14:32.617Z,2.67
2022-12-25T20:16:37.881Z,3.05
2022-12-25T20:18:40.169Z,2.67
2022-12-25T20:20:43.013Z,2.78
2022-12-25T20:22:44.785Z,2.65
2022-12-25T20:24:47.867Z,2.45
2022-12-25T20:26:55.286Z,2.75
2022-12-25T20:29:00.525Z,3.70
2022-12-25T20:31:07.024Z,3.30
2022-12-25T20:33:08.813Z,2.42
2022-12-25T20:35:16.465Z,2.70
2022-12-25T20:37:18.134Z,2.45
2022-12-25T20:39:19.913Z,2.67
2022-12-25T20:41:27.293Z,2.50
2022-12-25T20:43:29.379Z,2.95
2022-12-25T20:45:31.161Z,2.72
2022-12-25T20:47:33.763Z,2.70
2022-12-25T20:49:35.585Z,3.30
2022-12-25T20:51:37.486Z,4.82
2022-12-25T20:53:39.283Z,5.55
2022-12-25T20:55:48.338Z,5.15
2022-12-25T20:57:50.058Z,2.83
2022-12-25T20:59:52.180Z,2.80
2022-12-25T21:01:55.716Z,2.47
2022-12-25T21:03:57.839Z,3.13
2022-12-25T21:05:59.853Z,2.78
2022-12-25T21:08:02.006Z,2.38
2022-12-25T21:10:04.661Z,2.33
2022-12-25T21:12:07.173Z,2.55
2022-12-25T21:14:09.128Z,2.92
2022-12-25T21:16:20.039Z,2.17
2022-12-25T21:18:24.040Z,2.00
2022-12-25T21:20:25.778Z,2.35
2022-12-25T21:22:27.430Z,2.38
2022-12-25T21:24:29.117Z,2.40
2022-12-25T21:26:32.007Z,2.28
2022-12-25T21:28:34.429Z,2.20
2022-12-25T21:30:36.860Z,2.10
2022-12-25T21:32:56.819Z,2.55
2022-12-25T21:34:58.600Z,2.33
2022-12-25T21:37:00.300Z,2.60
2022-12-25T21:39:07.493Z,2.38
2022-12-25T21:41:12.423Z,2.13
2022-12-25T21:43:14.476Z,2.78
2022-12-25T21:45:21.484Z,2.50
2022-12-25T21:47:23.139Z,2.30
2022-12-25T21:49:43.467Z,2.50
2022-12-25T21:52:14.362Z,2.20
2022-12-25T21:54:16.817Z,2.72
2022-12-25T21:56:18.587Z,1.95
2022-12-25T21:58:20.303Z,2.30
2022-12-25T22:00:22.050Z,1.92
2022-12-25T22:02:23.882Z,2.28
2022-12-25T22:04:26.199Z,2.30
2022-12-25T22:06:46.755Z,2.42
2022-12-25T22:08:48.504Z,2.45
2022-12-25T22:10:50.174Z,2.30
2022-12-25T22:13:10.609Z,2.13
2022-12-25T22:15:12.439Z,1.92
2022-12-25T22:17:32.719Z,2.28
2022-12-25T22:19:49.654Z,1.88
2022-12-25T22:21:51.685Z,2.05
2022-12-25T22:23:53.404Z,3.03
2022-12-25T22:25:55.202Z,1.90
2022-12-25T22:27:57.686Z,2.60
2022-12-25T22:29:59.641Z,2.53
2022-12-25T22:32:01.374Z,2.60
2022-12-25T22:34:03.022Z,2.30
2022-12-25T22:36:06.827Z,1.88
2022-12-25T22:38:08.488Z,2.78
2022-12-25T22:40:14.956Z,2.40
2022-12-25T22:42:16.740Z,3.15
2022-12-25T22:44:18.742Z,2.50
2022-12-25T22:46:20.608Z,2.00
2022-12-25T22:48:22.342Z,2.38
2022-12-25T22:50:24.047Z,2.45
2022-12-25T22:52:25.833Z,2.22
2022-12-25T22:54:30.103Z,2.47
2022-12-25T22:56:31.799Z,1.75
2022-12-25T22:58:33.447Z,2.42
2022-12-25T23:00:36.194Z,2.50
2022-12-25T23:02:40.421Z,2.45
2022-12-25T23:04:45.350Z,1.85
2022-12-25T23:06:47.258Z,2.38
2022-12-25T23:08:49.339Z,3.53
2022-12-25T23:10:51.321Z,3.08
2022-12-25T23:13:11.590Z,2.70
2022-12-25T23:15:13.402Z,2.45
2022-12-25T23:17:34.036Z,3.17
2022-12-25T23:19:54.241Z,2.88
2022-12-25T23:22:14.463Z,3.45
2022-12-25T23:24:34.774Z,2.53
2022-12-25T23:26:36.541Z,2.75
2022-12-25T23:28:59.429Z,4.00
2022-12-25T23:31:01.165Z,4.05
2022-12-25T23:33:02.961Z,4.28
2022-12-25T23:35:05.285Z,3.90
2022-12-25T23:37:07.044Z,2.95
2022-12-25T23:39:10.300Z,4.38
2022-12-25T23:41:12.331Z,3.47
2022-12-25T23:43:14.026Z,3.60
2022-12-25T23:45:15.800Z,3.85
2022-12-25T23:47:17.502Z,3.45
2022-12-25T23:49:19.523Z,4.53
2022-12-25T23:51:21.274Z,3.63
2022-12-25T23:53:23.027Z,3.58
2022-12-25T23:55:24.776Z,3.03
2022-12-25T23:57:26.449Z,2.90
2022-12-25T23:59:30.389Z,3.28
